OIIS  Semnan  Airport

Semnan, Iran

Add Bookmark
ICAO OIIS
Type Airport
Status Operational
Latitude
35° 35' 27" N
35.591099
Longitude
53° 29' 42" E
53.495098
Local (DST + 5) UTC (GMT + 4)
Apr 2, 2015 08:54 Apr 2, 2015 04:24
Sunrise-Sunset Local UTC
Begin Civil Twilight 06:14 01:44
Sunrise 06:39 02:09
Sunset 07:19 14:49
End Civil Twilight 07:45 15:15
VFR
VFR
MVFR
MVFR
IFR
VFR
LIFR
VFR
Unknown
Unavailable

Current Weather

METAR Observed VFR
OIIS 011900Z 30002KT CAVOK 15/M01 Q1010 Wed, Apr 1, 2015 @ 19:00 UTC
(9 Hours, 24 Minutes ago)
Visual Flight Rules
Wind Visibility Clouds Conditions
300° at 2 knots (4 kph) 10 km or more
  • Clear skies
  • No significant weather
Temperatures Readings Precipitation
Current Temp 15°C (59°F)
Dewpoint -1°C (30°F)
Humidity 34%
Altimeter 29.82"Hg
Sea Level Pressure 1010mb
Field Elevation 3658.14'
None Recorded

Additional weather within a 185.2km radius of OIIS

Map ICAO Location
OINZ 119.3km N (347°)
OINB 146.5km N (329°)
OING 167.4km N (029°)
VFR
VFR
MVFR
MVFR
IFR
VFR
LIFR
VFR
Unknown
Unavailable
-
-

CheckWX.com is intended as a tool to help pilots better visualize weather data. It is not intended as a substitute for an official weather briefing obtained from a Flight Service Station. CheckWX.com does not meet the FAA requirements for an official pre-flight weather briefing. Therefore, it's important that pilots still call and obtain an official FSS pre-flight weather briefing.

© 2007-2015 CheckWX.com
04:24:06 UTC